createdAt,value
2023-02-04T00:00:51.499Z,7.07
2023-02-04T00:01:53.098Z,8.23
2023-02-04T00:02:54.747Z,7.13
2023-02-04T00:03:56.344Z,9.70
2023-02-04T00:04:57.916Z,7.40
2023-02-04T00:05:59.605Z,10.75
2023-02-04T00:07:01.297Z,7.97
2023-02-04T00:08:03.873Z,13.90
2023-02-04T00:09:05.483Z,7.60
2023-02-04T00:10:07.369Z,6.35
2023-02-04T00:11:09.025Z,10.10
2023-02-04T00:12:10.846Z,6.40
2023-02-04T00:13:12.465Z,8.68
2023-02-04T00:14:14.060Z,6.20
2023-02-04T00:15:15.739Z,7.45
2023-02-04T00:16:17.794Z,6.88
2023-02-04T00:17:19.511Z,9.82
2023-02-04T00:18:22.146Z,7.57
2023-02-04T00:19:25.620Z,5.65
2023-02-04T00:20:27.294Z,6.72
2023-02-04T00:21:28.925Z,6.75
2023-02-04T00:22:30.952Z,8.38
2023-02-04T00:23:32.529Z,7.00
2023-02-04T00:24:37.989Z,12.52
2023-02-04T00:25:39.654Z,8.05
2023-02-04T00:26:41.261Z,8.93
2023-02-04T00:27:42.882Z,5.88
2023-02-04T00:28:44.522Z,8.67
2023-02-04T00:29:46.138Z,8.32
2023-02-04T00:30:47.871Z,6.68
2023-02-04T00:31:49.540Z,7.70
2023-02-04T00:32:54.732Z,8.38
2023-02-04T00:33:56.329Z,8.68
2023-02-04T00:34:57.923Z,6.90
2023-02-04T00:35:59.651Z,6.47
2023-02-04T00:37:01.399Z,7.15
2023-02-04T00:38:03.839Z,8.35
2023-02-04T00:39:05.522Z,5.03
2023-02-04T00:40:07.816Z,6.20
2023-02-04T00:41:09.462Z,7.25
2023-02-04T00:42:11.110Z,8.63
2023-02-04T00:43:12.707Z,8.88
2023-02-04T00:44:14.395Z,8.23
2023-02-04T00:45:16.000Z,7.72
2023-02-04T00:46:17.670Z,5.50
2023-02-04T00:47:19.331Z,8.20
2023-02-04T00:48:21.062Z,8.57
2023-02-04T00:49:22.721Z,6.43
2023-02-04T00:50:24.398Z,5.07
2023-02-04T00:51:26.035Z,5.05
2023-02-04T00:52:27.705Z,9.18
2023-02-04T00:53:29.319Z,6.15
2023-02-04T00:54:31.020Z,3.90
2023-02-04T00:55:32.742Z,6.20
2023-02-04T00:56:34.933Z,9.07
2023-02-04T00:57:36.549Z,8.13
2023-02-04T00:58:38.204Z,7.47
2023-02-04T00:59:39.784Z,8.80
2023-02-04T01:00:41.515Z,6.35
2023-02-04T01:01:43.381Z,9.38
2023-02-04T01:02:45.035Z,5.22
2023-02-04T01:03:46.666Z,6.30
2023-02-04T01:04:48.265Z,5.18
2023-02-04T01:05:49.963Z,5.60
2023-02-04T01:06:51.609Z,7.97
2023-02-04T01:07:53.312Z,6.47
2023-02-04T01:08:54.893Z,5.32
2023-02-04T01:09:56.486Z,8.13
2023-02-04T01:10:59.275Z,9.10
2023-02-04T01:12:00.884Z,6.78
2023-02-04T01:13:02.496Z,8.45
2023-02-04T01:14:04.083Z,7.57
2023-02-04T01:15:06.778Z,8.30
2023-02-04T01:16:09.315Z,5.95
2023-02-04T01:17:10.946Z,6.15
2023-02-04T01:18:12.973Z,7.63
2023-02-04T01:19:14.544Z,6.32
2023-02-04T01:20:16.302Z,7.60
2023-02-04T01:21:18.065Z,6.50
2023-02-04T01:22:19.936Z,5.55
2023-02-04T01:23:21.541Z,4.10
2023-02-04T01:24:23.135Z,6.30
2023-02-04T01:25:24.741Z,7.45
2023-02-04T01:26:27.409Z,6.85
2023-02-04T01:27:29.033Z,8.15
2023-02-04T01:28:31.176Z,4.80
2023-02-04T01:29:32.801Z,6.28
2023-02-04T01:30:34.435Z,8.17
2023-02-04T01:31:36.118Z,7.65
2023-02-04T01:32:37.735Z,6.20
2023-02-04T01:33:40.605Z,7.85
2023-02-04T01:34:42.222Z,6.88
2023-02-04T01:35:43.808Z,6.60
2023-02-04T01:36:45.383Z,10.32
2023-02-04T01:37:46.960Z,6.57
2023-02-04T01:38:49.998Z,6.85
2023-02-04T01:39:51.585Z,6.22
2023-02-04T01:40:53.204Z,6.50
2023-02-04T01:41:55.016Z,10.82
2023-02-04T01:42:56.635Z,5.15
2023-02-04T01:43:59.341Z,5.68
2023-02-04T01:45:00.944Z,12.65
2023-02-04T01:46:02.906Z,5.43
2023-02-04T01:47:04.625Z,6.85
2023-02-04T01:48:06.866Z,6.95
2023-02-04T01:49:09.300Z,8.95
2023-02-04T01:50:13.131Z,5.18
2023-02-04T01:51:16.204Z,7.80
2023-02-04T01:52:17.815Z,12.85
2023-02-04T01:53:24.276Z,5.25
2023-02-04T01:54:26.298Z,10.48
2023-02-04T01:55:29.343Z,5.63
2023-02-04T01:56:31.103Z,6.03
2023-02-04T01:57:32.710Z,8.02
2023-02-04T01:58:34.372Z,7.72
2023-02-04T01:59:36.108Z,5.97
2023-02-04T02:00:39.197Z,7.07
2023-02-04T02:01:48.227Z,7.30
2023-02-04T02:02:50.914Z,8.68
2023-02-04T02:03:52.565Z,8.20
2023-02-04T02:04:54.140Z,9.38
2023-02-04T02:05:55.715Z,12.25
2023-02-04T02:06:59.055Z,10.35
2023-02-04T02:08:01.428Z,7.30
2023-02-04T02:09:03.429Z,5.72
2023-02-04T02:10:05.998Z,11.20
2023-02-04T02:11:07.632Z,4.00
2023-02-04T02:12:09.231Z,5.77
2023-02-04T02:13:12.524Z,6.93
2023-02-04T02:14:14.124Z,7.75
2023-02-04T02:15:15.986Z,6.47
2023-02-04T02:16:17.717Z,7.50
2023-02-04T02:17:19.385Z,10.00
2023-02-04T02:18:21.107Z,5.50
2023-02-04T02:19:27.526Z,8.13
2023-02-04T02:20:29.869Z,6.70
2023-02-04T02:21:36.817Z,7.03
2023-02-04T02:23:03.073Z,11.70
2023-02-04T02:24:23.867Z,9.07
2023-02-04T02:25:25.474Z,6.68
2023-02-04T02:26:27.067Z,8.85
2023-02-04T02:27:28.719Z,5.88
2023-02-04T02:28:30.364Z,7.72
2023-02-04T02:29:31.954Z,6.43
2023-02-04T02:30:33.913Z,6.60
2023-02-04T02:31:35.822Z,4.90
2023-02-04T02:32:38.105Z,7.13
2023-02-04T02:33:39.764Z,8.17
2023-02-04T02:34:41.565Z,5.28
2023-02-04T02:35:43.696Z,6.18
2023-02-04T02:36:45.301Z,8.00
2023-02-04T02:37:46.914Z,6.10
2023-02-04T02:38:48.555Z,8.77
2023-02-04T02:39:50.133Z,8.88
2023-02-04T02:40:52.690Z,6.97
2023-02-04T02:41:55.660Z,10.07
2023-02-04T02:42:57.308Z,5.85
2023-02-04T02:43:58.924Z,7.10
2023-02-04T02:45:00.608Z,6.40
2023-02-04T02:46:02.346Z,7.82
2023-02-04T02:47:03.937Z,6.15
2023-02-04T02:48:05.702Z,5.80
2023-02-04T02:49:07.332Z,7.90
2023-02-04T02:50:09.825Z,8.68
2023-02-04T02:51:11.468Z,6.97
2023-02-04T02:52:13.340Z,9.77
2023-02-04T02:53:17.100Z,8.15
2023-02-04T02:54:25.898Z,6.70
2023-02-04T02:55:28.009Z,5.05
2023-02-04T02:56:29.672Z,7.85
2023-02-04T02:57:31.246Z,8.43
2023-02-04T02:58:36.465Z,5.90
2023-02-04T02:59:38.052Z,10.07
2023-02-04T03:00:39.736Z,5.82
2023-02-04T03:01:41.380Z,8.20
2023-02-04T03:02:43.402Z,12.50
2023-02-04T03:03:50.065Z,6.80
2023-02-04T03:04:54.621Z,10.50
2023-02-04T03:05:59.081Z,7.22
2023-02-04T03:07:00.739Z,4.35
2023-02-04T03:08:02.529Z,7.80
2023-02-04T03:09:04.262Z,8.95
2023-02-04T03:10:05.967Z,5.72
2023-02-04T03:11:08.080Z,6.68
2023-02-04T03:12:09.951Z,8.48
2023-02-04T03:13:12.231Z,6.70
2023-02-04T03:14:13.818Z,12.80
2023-02-04T03:15:15.440Z,6.17
2023-02-04T03:16:17.555Z,10.27
2023-02-04T03:17:19.849Z,9.25
2023-02-04T03:18:21.504Z,6.95
2023-02-04T03:19:25.724Z,6.43
2023-02-04T03:20:28.689Z,8.68
2023-02-04T03:21:30.468Z,9.48
2023-02-04T03:22:32.276Z,8.40
2023-02-04T03:23:34.356Z,7.72
2023-02-04T03:24:36.584Z,5.82
2023-02-04T03:25:38.344Z,9.20
2023-02-04T03:26:39.992Z,7.13
2023-02-04T03:27:41.609Z,5.68
2023-02-04T03:28:43.263Z,9.70
2023-02-04T03:29:45.294Z,9.05
2023-02-04T03:30:53.834Z,8.82
2023-02-04T03:31:55.761Z,7.95
2023-02-04T03:32:57.548Z,11.32
2023-02-04T03:33:59.165Z,5.93
2023-02-04T03:35:00.836Z,11.70
2023-02-04T03:36:02.448Z,7.57
2023-02-04T03:37:04.044Z,7.20
2023-02-04T03:38:05.697Z,9.50
2023-02-04T03:39:07.315Z,7.20
2023-02-04T03:40:09.718Z,7.22
2023-02-04T03:41:11.373Z,6.80
2023-02-04T03:42:12.974Z,6.18
2023-02-04T03:43:14.582Z,7.70
2023-02-04T03:44:16.183Z,7.05
2023-02-04T03:45:17.842Z,9.57
2023-02-04T03:46:19.460Z,8.17
2023-02-04T03:47:21.084Z,7.68
2023-02-04T03:48:22.680Z,8.45
2023-02-04T03:49:24.671Z,6.53
2023-02-04T03:50:26.386Z,11.48
2023-02-04T03:51:28.001Z,8.15
2023-02-04T03:52:29.583Z,8.15
2023-02-04T03:53:31.205Z,9.82
2023-02-04T03:54:32.791Z,9.35
2023-02-04T03:55:34.474Z,7.45
2023-02-04T03:56:36.121Z,6.67
2023-02-04T03:57:37.740Z,9.43
2023-02-04T03:58:39.368Z,7.70
2023-02-04T03:59:40.968Z,5.90
2023-02-04T04:00:42.622Z,8.32
2023-02-04T04:01:44.328Z,8.18
2023-02-04T04:02:46.116Z,7.03
2023-02-04T04:03:47.788Z,11.13
2023-02-04T04:04:49.386Z,10.75
2023-02-04T04:05:51.037Z,7.40
2023-02-04T04:06:52.678Z,7.03
2023-02-04T04:07:54.279Z,8.40
2023-02-04T04:08:55.869Z,6.13
2023-02-04T04:09:57.466Z,5.43
2023-02-04T04:10:59.055Z,8.43
2023-02-04T04:12:01.101Z,5.75
2023-02-04T04:13:02.805Z,8.40
2023-02-04T04:14:04.436Z,4.55
2023-02-04T04:15:06.323Z,4.35
2023-02-04T04:16:09.116Z,6.22
2023-02-04T04:17:11.064Z,6.93
2023-02-04T04:18:12.935Z,9.32
2023-02-04T04:19:14.528Z,9.95
2023-02-04T04:20:16.389Z,7.00
2023-02-04T04:21:18.012Z,5.78
2023-02-04T04:22:19.866Z,7.57
2023-02-04T04:23:21.510Z,8.02
2023-02-04T04:24:23.080Z,7.55
2023-02-04T04:25:24.742Z,7.30
2023-02-04T04:26:26.343Z,6.70
2023-02-04T04:27:29.279Z,5.87
2023-02-04T04:28:30.873Z,7.22
2023-02-04T04:29:32.489Z,6.07
2023-02-04T04:30:34.334Z,6.70
2023-02-04T04:31:36.258Z,5.50
2023-02-04T04:32:38.063Z,5.10
2023-02-04T04:33:39.699Z,7.95
2023-02-04T04:34:41.307Z,4.65
2023-02-04T04:35:42.926Z,5.05
2023-02-04T04:36:44.541Z,8.85
2023-02-04T04:37:46.272Z,5.90
2023-02-04T04:38:47.846Z,6.60
2023-02-04T04:39:49.447Z,4.38
2023-02-04T04:40:51.036Z,8.85
2023-02-04T04:41:52.617Z,9.55
2023-02-04T04:42:55.237Z,6.57
2023-02-04T04:43:56.839Z,3.75
2023-02-04T04:44:58.472Z,8.05
2023-02-04T04:46:00.049Z,5.05
2023-02-04T04:47:01.816Z,6.15
2023-02-04T04:48:04.625Z,9.57
2023-02-04T04:49:06.941Z,8.45
2023-02-04T04:50:08.898Z,6.18
2023-02-04T04:51:10.513Z,8.38
2023-02-04T04:52:12.131Z,6.82
2023-02-04T04:53:14.037Z,5.95
2023-02-04T04:54:15.666Z,5.45
2023-02-04T04:55:17.461Z,7.88
2023-02-04T04:56:19.275Z,6.45
2023-02-04T04:57:21.039Z,4.85
2023-02-04T04:58:23.432Z,8.53
2023-02-04T04:59:25.029Z,6.50
2023-02-04T05:00:26.722Z,4.28
2023-02-04T05:01:29.061Z,6.93
2023-02-04T05:02:30.669Z,4.20
2023-02-04T05:03:32.657Z,7.38
2023-02-04T05:04:34.285Z,7.32
2023-02-04T05:05:39.965Z,4.38
2023-02-04T05:06:41.710Z,7.10
2023-02-04T05:07:43.479Z,5.00
2023-02-04T05:08:45.079Z,6.27
2023-02-04T05:09:46.704Z,4.00
2023-02-04T05:10:48.368Z,5.90
2023-02-04T05:11:50.024Z,5.55
2023-02-04T05:12:51.635Z,4.82
2023-02-04T05:13:53.280Z,6.20
2023-02-04T05:14:54.865Z,5.32
2023-02-04T05:15:56.598Z,5.28
2023-02-04T05:16:58.408Z,7.10
2023-02-04T05:18:00.060Z,6.13
2023-02-04T05:19:01.656Z,4.87
2023-02-04T05:20:03.476Z,4.70
2023-02-04T05:21:05.241Z,7.07
2023-02-04T05:22:06.903Z,5.53
2023-02-04T05:23:08.598Z,7.13
2023-02-04T05:24:10.246Z,6.32
2023-02-04T05:25:11.875Z,6.65
2023-02-04T05:26:22.184Z,5.03
2023-02-04T05:27:30.918Z,4.72
2023-02-04T05:28:32.594Z,4.90
2023-02-04T05:29:34.204Z,5.83
2023-02-04T05:30:35.882Z,4.38
2023-02-04T05:31:37.618Z,4.47
2023-02-04T05:32:39.439Z,5.20
2023-02-04T05:33:41.135Z,5.78
2023-02-04T05:34:42.752Z,4.53
2023-02-04T05:35:44.446Z,6.00
2023-02-04T05:36:46.025Z,7.65
2023-02-04T05:37:47.616Z,4.38
2023-02-04T05:38:49.305Z,3.83
2023-02-04T05:39:50.910Z,3.50
2023-02-04T05:40:52.544Z,4.03
2023-02-04T05:41:54.132Z,2.70
2023-02-04T05:42:55.732Z,3.35
2023-02-04T05:43:57.372Z,2.30
2023-02-04T05:44:59.050Z,2.38
2023-02-04T05:46:01.210Z,4.75
2023-02-04T05:47:02.834Z,2.65
2023-02-04T05:48:04.696Z,2.88
2023-02-04T05:49:07.659Z,2.83
2023-02-04T05:50:09.548Z,3.50
2023-02-04T05:51:11.146Z,3.28
2023-02-04T05:52:12.809Z,4.10
2023-02-04T05:53:14.402Z,3.58
2023-02-04T05:54:19.567Z,2.78
2023-02-04T05:55:21.225Z,2.90
2023-02-04T05:56:22.847Z,7.32
2023-02-04T05:57:24.502Z,3.97
2023-02-04T05:58:26.228Z,2.38
2023-02-04T05:59:27.824Z,1.75
2023-02-04T06:00:29.679Z,3.63
2023-02-04T06:01:31.436Z,3.92
2023-02-04T06:02:33.047Z,3.72
2023-02-04T06:03:34.778Z,3.72
2023-02-04T06:04:36.591Z,3.28
2023-02-04T06:05:38.519Z,2.70
2023-02-04T06:06:40.143Z,2.67
2023-02-04T06:07:41.722Z,3.75
2023-02-04T06:08:43.350Z,2.15
2023-02-04T06:09:45.003Z,1.38
2023-02-04T06:10:46.651Z,2.13
2023-02-04T06:11:48.259Z,1.77
2023-02-04T06:12:49.854Z,2.10
2023-02-04T06:13:51.453Z,2.95
2023-02-04T06:14:53.050Z,2.75
2023-02-04T06:15:54.693Z,1.33
2023-02-04T06:16:56.455Z,1.73
2023-02-04T06:17:58.570Z,2.10
2023-02-04T06:19:00.188Z,1.95
2023-02-04T06:20:01.782Z,1.40
2023-02-04T06:21:04.837Z,3.33
2023-02-04T06:22:06.412Z,1.48
2023-02-04T06:23:08.094Z,1.55
2023-02-04T06:24:10.276Z,1.27
2023-02-04T06:25:11.870Z,1.05
2023-02-04T06:26:13.509Z,1.45
2023-02-04T06:27:18.678Z,3.28
2023-02-04T06:28:20.393Z,2.05
2023-02-04T06:29:22.054Z,1.63
2023-02-04T06:30:23.647Z,1.58
2023-02-04T06:31:25.342Z,2.00
2023-02-04T06:32:27.030Z,2.08
2023-02-04T06:33:28.631Z,1.30
2023-02-04T06:34:30.656Z,3.42
2023-02-04T06:35:32.295Z,1.40
2023-02-04T06:36:33.926Z,2.08
2023-02-04T06:37:35.722Z,4.05
2023-02-04T06:38:37.305Z,3.70
2023-02-04T06:39:39.040Z,5.38
2023-02-04T06:40:40.633Z,3.10
2023-02-04T06:41:42.230Z,3.73
2023-02-04T06:42:43.904Z,3.90
2023-02-04T06:43:45.497Z,6.50
2023-02-04T06:44:47.196Z,12.15
2023-02-04T06:45:48.894Z,9.10
2023-02-04T06:46:50.683Z,18.88
2023-02-04T06:47:52.280Z,18.13
2023-02-04T06:48:53.885Z,24.60
2023-02-04T06:49:55.553Z,19.92
2023-02-04T06:50:57.149Z,16.92
2023-02-04T06:51:58.752Z,14.63
2023-02-04T06:53:00.355Z,14.18
2023-02-04T06:54:01.962Z,11.40
2023-02-04T06:55:03.658Z,6.45
2023-02-04T06:56:05.427Z,5.30
2023-02-04T06:57:07.048Z,6.53
2023-02-04T06:58:08.691Z,5.25
2023-02-04T06:59:10.929Z,4.53
2023-02-04T07:00:13.140Z,4.03
2023-02-04T07:01:14.756Z,6.53
2023-02-04T07:02:16.371Z,4.53
2023-02-04T07:03:18.108Z,3.70
2023-02-04T07:04:19.707Z,4.55
2023-02-04T07:05:21.294Z,4.15
2023-02-04T07:06:22.887Z,4.72
2023-02-04T07:07:24.471Z,3.65
2023-02-04T07:08:26.174Z,3.90
2023-02-04T07:09:29.320Z,3.88
2023-02-04T07:10:31.391Z,4.32
2023-02-04T07:11:33.277Z,4.85
2023-02-04T07:12:34.892Z,3.97
2023-02-04T07:13:36.485Z,4.28
2023-02-04T07:14:38.119Z,4.38
2023-02-04T07:15:40.010Z,4.28
2023-02-04T07:16:41.627Z,3.65
2023-02-04T07:17:43.302Z,5.43
2023-02-04T07:18:44.958Z,3.22
2023-02-04T07:19:46.598Z,6.88
2023-02-04T07:20:48.244Z,6.93
2023-02-04T07:21:53.973Z,4.32
2023-02-04T07:22:55.587Z,4.60
2023-02-04T07:23:57.203Z,5.90
2023-02-04T07:24:58.805Z,5.45
2023-02-04T07:26:00.541Z,4.80
2023-02-04T07:27:02.730Z,5.07
2023-02-04T07:28:05.750Z,5.50
2023-02-04T07:29:12.197Z,5.82
2023-02-04T07:30:16.686Z,5.30
2023-02-04T07:31:18.422Z,5.75
2023-02-04T07:32:20.073Z,5.13
2023-02-04T07:33:21.700Z,4.85
2023-02-04T07:34:23.325Z,5.65
2023-02-04T07:35:24.946Z,7.68
2023-02-04T07:36:26.613Z,5.28
2023-02-04T07:37:28.382Z,5.65
2023-02-04T07:38:30.022Z,4.90
2023-02-04T07:39:31.781Z,5.65
2023-02-04T07:40:34.753Z,5.93
2023-02-04T07:41:36.810Z,7.15
2023-02-04T07:42:38.497Z,5.95
2023-02-04T07:43:40.101Z,6.18
2023-02-04T07:44:41.734Z,5.47
2023-02-04T07:45:43.377Z,5.50
2023-02-04T07:46:44.971Z,5.82
2023-02-04T07:47:46.750Z,6.93
2023-02-04T07:48:48.364Z,5.88
2023-02-04T07:49:51.033Z,6.40
2023-02-04T07:50:52.644Z,6.60
2023-02-04T07:51:54.312Z,6.63
2023-02-04T07:52:55.959Z,7.20
2023-02-04T07:53:57.580Z,7.65
2023-02-04T07:54:59.687Z,6.13
2023-02-04T07:56:01.292Z,7.68
2023-02-04T07:57:02.962Z,7.05
2023-02-04T07:58:04.657Z,6.53
2023-02-04T07:59:06.244Z,8.02
2023-02-04T08:00:08.432Z,6.85
2023-02-04T08:01:10.021Z,6.80
2023-02-04T08:02:11.820Z,9.02
2023-02-04T08:03:13.411Z,8.43
2023-02-04T08:04:15.101Z,6.82
2023-02-04T08:05:16.835Z,8.95
2023-02-04T08:06:18.529Z,7.82
2023-02-04T08:07:20.174Z,8.68
2023-02-04T08:08:21.783Z,8.23
2023-02-04T08:09:24.046Z,10.25
2023-02-04T08:10:25.727Z,10.93
2023-02-04T08:11:27.339Z,8.77
2023-02-04T08:12:29.157Z,7.00
2023-02-04T08:13:30.788Z,8.43
2023-02-04T08:14:32.387Z,7.20
2023-02-04T08:15:33.987Z,8.35
2023-02-04T08:16:35.837Z,7.85
2023-02-04T08:17:37.568Z,7.95
2023-02-04T08:18:39.206Z,9.57
2023-02-04T08:19:40.815Z,6.68
2023-02-04T08:20:42.421Z,6.17
2023-02-04T08:21:44.065Z,6.90
2023-02-04T08:22:45.719Z,7.32
2023-02-04T08:23:47.433Z,6.07
2023-02-04T08:24:49.021Z,8.05
2023-02-04T08:25:50.666Z,9.07
2023-02-04T08:26:52.279Z,7.25
2023-02-04T08:27:53.977Z,7.07
2023-02-04T08:28:56.529Z,7.35
2023-02-04T08:29:58.199Z,6.57
2023-02-04T08:30:59.905Z,8.05
2023-02-04T08:32:01.797Z,6.35
2023-02-04T08:33:03.499Z,6.82
2023-02-04T08:34:05.619Z,8.02
2023-02-04T08:35:07.924Z,6.57
2023-02-04T08:36:09.865Z,6.82
2023-02-04T08:37:11.487Z,7.10
2023-02-04T08:38:13.095Z,10.55
2023-02-04T08:39:15.043Z,6.47
2023-02-04T08:40:16.733Z,6.90
2023-02-04T08:41:18.343Z,9.00
2023-02-04T08:42:20.125Z,7.50
2023-02-04T08:43:21.782Z,6.47
2023-02-04T08:44:23.396Z,7.13
2023-02-04T08:45:25.136Z,6.45
2023-02-04T08:46:26.849Z,6.97
2023-02-04T08:47:28.524Z,6.80
2023-02-04T08:48:30.283Z,5.85
2023-02-04T08:49:31.914Z,6.47
2023-02-04T08:50:33.926Z,6.78
2023-02-04T08:51:35.708Z,7.82
2023-02-04T08:52:37.384Z,5.50
2023-02-04T08:53:40.831Z,5.80
2023-02-04T08:54:42.472Z,6.40
2023-02-04T08:55:44.063Z,7.15
2023-02-04T08:56:45.693Z,5.70
2023-02-04T08:57:47.373Z,5.82
2023-02-04T08:58:49.020Z,5.72
2023-02-04T08:59:50.635Z,7.15
2023-02-04T09:00:52.263Z,6.18
2023-02-04T09:01:53.992Z,5.63
2023-02-04T09:02:55.665Z,5.55
2023-02-04T09:03:57.250Z,5.70
2023-02-04T09:04:58.889Z,5.82
2023-02-04T09:06:00.515Z,5.28
2023-02-04T09:07:02.212Z,6.13
2023-02-04T09:08:03.948Z,5.78
2023-02-04T09:09:05.532Z,5.65
2023-02-04T09:10:07.383Z,5.65
2023-02-04T09:11:11.324Z,5.75
2023-02-04T09:12:12.935Z,5.28
2023-02-04T09:13:14.699Z,6.83
2023-02-04T09:14:16.318Z,4.97
2023-02-04T09:15:18.031Z,5.75
2023-02-04T09:16:20.039Z,5.03
2023-02-04T09:17:21.767Z,5.25
2023-02-04T09:18:25.247Z,4.55
2023-02-04T09:19:26.865Z,4.90
2023-02-04T09:20:29.507Z,5.43
2023-02-04T09:21:31.611Z,3.97
2023-02-04T09:22:33.263Z,5.17
2023-02-04T09:23:34.883Z,4.57
2023-02-04T09:24:36.573Z,5.50
2023-02-04T09:25:43.022Z,4.72
2023-02-04T09:26:44.614Z,4.13
2023-02-04T09:27:46.199Z,4.35
2023-02-04T09:28:48.777Z,4.68
2023-02-04T09:29:50.423Z,5.35
2023-02-04T09:30:52.075Z,5.13
2023-02-04T09:31:53.779Z,4.72
2023-02-04T09:32:55.394Z,4.10
2023-02-04T09:33:57.039Z,3.78
2023-02-04T09:34:58.720Z,4.15
2023-02-04T09:36:00.331Z,5.28
2023-02-04T09:37:01.954Z,4.55
2023-02-04T09:38:03.878Z,5.15
2023-02-04T09:39:06.474Z,3.80
2023-02-04T09:40:09.871Z,3.55
2023-02-04T09:41:11.798Z,4.72
2023-02-04T09:42:16.283Z,3.92
2023-02-04T09:43:21.502Z,4.50
2023-02-04T09:44:24.718Z,4.50
2023-02-04T09:45:31.066Z,3.85
2023-02-04T09:46:32.703Z,5.72
2023-02-04T09:47:34.323Z,3.78
2023-02-04T09:48:35.957Z,4.72
2023-02-04T09:49:37.626Z,4.82
2023-02-04T09:50:39.220Z,4.07
2023-02-04T09:51:41.376Z,4.65
2023-02-04T09:52:43.262Z,4.15
2023-02-04T09:53:44.889Z,4.33
2023-02-04T09:54:46.675Z,3.75
2023-02-04T09:55:48.991Z,4.30
2023-02-04T09:56:50.947Z,3.28
2023-02-04T09:57:52.542Z,4.15
2023-02-04T09:58:54.129Z,3.30
2023-02-04T09:59:56.169Z,3.53
2023-02-04T10:01:06.143Z,3.97
2023-02-04T10:02:21.813Z,4.00
2023-02-04T10:03:23.576Z,6.13
2023-02-04T10:04:25.365Z,5.00
2023-02-04T10:05:37.328Z,4.03
2023-02-04T10:06:38.990Z,3.72
2023-02-04T10:07:40.596Z,3.60
2023-02-04T10:08:42.271Z,4.82
2023-02-04T10:09:43.925Z,3.72
2023-02-04T10:10:46.026Z,4.18
2023-02-04T10:11:47.981Z,4.13
2023-02-04T10:12:50.636Z,3.58
2023-02-04T10:13:54.107Z,4.03
2023-02-04T10:14:55.773Z,3.90
2023-02-04T10:15:57.654Z,5.13
2023-02-04T10:17:00.301Z,3.97
2023-02-04T10:18:03.526Z,5.72
2023-02-04T10:19:06.824Z,4.82
2023-02-04T10:20:19.398Z,5.47
2023-02-04T10:21:22.702Z,6.07
2023-02-04T10:22:24.296Z,4.07
2023-02-04T10:23:26.022Z,6.60
2023-02-04T10:24:28.286Z,6.75
2023-02-04T10:25:30.003Z,4.77
2023-02-04T10:26:31.997Z,3.90
2023-02-04T10:27:33.612Z,5.20
2023-02-04T10:28:40.160Z,4.95
2023-02-04T10:29:42.433Z,4.55
2023-02-04T10:30:47.280Z,4.45
2023-02-04T10:31:50.141Z,4.45
2023-02-04T10:32:52.071Z,6.70
2023-02-04T10:34:17.525Z,5.30
2023-02-04T10:35:21.453Z,6.37
2023-02-04T10:36:23.101Z,5.13
2023-02-04T10:37:24.861Z,8.98
2023-02-04T10:38:26.542Z,5.07
2023-02-04T10:39:29.321Z,4.25
2023-02-04T10:40:35.521Z,5.70
2023-02-04T10:41:45.280Z,4.22
2023-02-04T10:42:51.830Z,4.47
2023-02-04T10:44:12.454Z,4.70
2023-02-04T10:45:27.434Z,5.17
2023-02-04T10:46:31.223Z,4.75
2023-02-04T10:47:33.010Z,5.68
2023-02-04T10:48:41.662Z,14.02
2023-02-04T10:49:59.267Z,5.05
2023-02-04T10:51:00.854Z,5.00
2023-02-04T10:52:02.704Z,4.95
2023-02-04T10:53:22.878Z,11.18
2023-02-04T10:54:35.935Z,5.85
2023-02-04T10:55:37.546Z,6.50
2023-02-04T10:56:39.170Z,4.78
2023-02-04T10:57:41.335Z,5.05
2023-02-04T10:58:43.130Z,4.70
2023-02-04T10:59:45.327Z,5.03
2023-02-04T11:00:46.924Z,4.55
2023-02-04T11:01:48.543Z,5.25
2023-02-04T11:03:00.943Z,4.97
2023-02-04T11:04:02.640Z,8.00
2023-02-04T11:05:04.922Z,4.80
2023-02-04T11:06:14.937Z,5.13
2023-02-04T11:07:16.549Z,4.68
2023-02-04T11:08:19.443Z,5.78
2023-02-04T11:09:21.188Z,4.57
2023-02-04T11:10:29.603Z,5.18
2023-02-04T11:11:31.416Z,7.22
2023-02-04T11:12:45.071Z,3.60
2023-02-04T11:13:49.681Z,4.70
2023-02-04T11:14:57.924Z,5.55
2023-02-04T11:16:25.774Z,4.60
2023-02-04T11:17:31.742Z,6.38
2023-02-04T11:18:33.375Z,8.38
2023-02-04T11:19:38.570Z,5.03
2023-02-04T11:20:40.994Z,5.80
2023-02-04T11:21:44.883Z,5.88
2023-02-04T11:22:53.899Z,5.45
2023-02-04T11:24:16.593Z,5.18
2023-02-04T11:25:34.729Z,5.05
2023-02-04T11:26:40.630Z,5.80
2023-02-04T11:27:43.853Z,5.65
2023-02-04T11:29:00.651Z,4.57
2023-02-04T11:30:21.887Z,6.68
2023-02-04T11:31:23.599Z,6.28
2023-02-04T11:32:38.130Z,4.72
2023-02-04T11:33:41.504Z,6.45
2023-02-04T11:34:51.384Z,4.88
2023-02-04T11:36:04.618Z,4.78
2023-02-04T11:37:12.152Z,4.33
2023-02-04T11:38:26.177Z,4.55
2023-02-04T11:39:38.500Z,4.30
2023-02-04T11:40:40.121Z,4.82
2023-02-04T11:41:44.985Z,6.45
2023-02-04T11:42:46.603Z,5.30
2023-02-04T11:43:51.132Z,7.15
2023-02-04T11:44:59.143Z,4.30
2023-02-04T11:46:13.978Z,4.10
2023-02-04T11:47:15.699Z,4.13
2023-02-04T11:48:20.633Z,5.13
2023-02-04T11:49:23.761Z,4.15
2023-02-04T11:50:43.488Z,4.53
2023-02-04T11:51:46.584Z,5.60
2023-02-04T11:52:48.283Z,4.45
2023-02-04T11:53:53.113Z,5.75
2023-02-04T11:54:56.134Z,6.88
2023-02-04T11:55:58.152Z,5.00
2023-02-04T11:56:59.930Z,5.15
2023-02-04T11:58:01.653Z,5.60
2023-02-04T11:59:03.262Z,4.97
2023-02-04T12:00:05.214Z,7.03
2023-02-04T12:01:34.238Z,6.40
2023-02-04T12:02:47.380Z,4.75
2023-02-04T12:03:50.191Z,4.90
2023-02-04T12:05:08.736Z,4.10
2023-02-04T12:06:10.333Z,4.88
2023-02-04T12:07:12.187Z,5.18
2023-02-04T12:08:23.430Z,4.53
2023-02-04T12:09:26.631Z,5.18
2023-02-04T12:10:28.373Z,3.97
2023-02-04T12:11:33.007Z,6.38
2023-02-04T12:12:51.020Z,4.88
2023-02-04T12:13:56.529Z,4.95
2023-02-04T12:15:02.243Z,4.30
2023-02-04T12:16:05.922Z,4.28
2023-02-04T12:17:20.550Z,5.30
2023-02-04T12:18:22.236Z,6.10
2023-02-04T12:19:25.224Z,4.75
2023-02-04T12:20:27.833Z,5.70
2023-02-04T12:21:29.465Z,4.78
2023-02-04T12:22:31.094Z,6.80
2023-02-04T12:23:32.851Z,4.97
2023-02-04T12:24:34.510Z,4.80
2023-02-04T12:25:36.091Z,5.85
2023-02-04T12:26:37.764Z,5.93
2023-02-04T12:27:39.422Z,4.50
2023-02-04T12:28:41.049Z,4.47
2023-02-04T12:29:42.740Z,4.93
2023-02-04T12:30:44.416Z,5.15
2023-02-04T12:31:46.211Z,4.00
2023-02-04T12:32:47.863Z,3.97
2023-02-04T12:33:49.512Z,5.65
2023-02-04T12:34:51.172Z,7.95
2023-02-04T12:35:52.890Z,5.63
2023-02-04T12:36:54.489Z,5.27
2023-02-04T12:37:56.411Z,5.80
2023-02-04T12:38:59.016Z,4.50
2023-02-04T12:40:00.716Z,5.28
2023-02-04T12:41:02.312Z,7.13
2023-02-04T12:42:04.637Z,5.90
2023-02-04T12:43:06.432Z,7.68
2023-02-04T12:44:08.038Z,5.10
2023-02-04T12:45:11.484Z,5.47
2023-02-04T12:46:13.083Z,4.78
2023-02-04T12:47:14.759Z,6.40
2023-02-04T12:48:16.451Z,5.18
2023-02-04T12:49:18.182Z,6.10
2023-02-04T12:50:22.686Z,6.15
2023-02-04T12:51:24.360Z,4.43
2023-02-04T12:52:26.006Z,6.45
2023-02-04T12:53:27.904Z,6.53
2023-02-04T12:54:29.570Z,5.00
2023-02-04T12:55:31.536Z,6.65
2023-02-04T12:56:33.412Z,7.32
2023-02-04T12:57:35.165Z,5.83
2023-02-04T12:58:36.787Z,8.57
2023-02-04T12:59:38.504Z,5.80
2023-02-04T13:00:40.234Z,5.43
2023-02-04T13:01:41.980Z,5.43
2023-02-04T13:02:43.741Z,5.00
2023-02-04T13:03:45.411Z,5.65
2023-02-04T13:04:47.045Z,5.50
2023-02-04T13:05:48.782Z,5.15
2023-02-04T13:06:50.481Z,5.28
2023-02-04T13:07:52.113Z,7.23
2023-02-04T13:08:53.772Z,6.13
2023-02-04T13:09:55.388Z,4.60
2023-02-04T13:10:57.219Z,5.38
2023-02-04T13:11:58.945Z,10.10
2023-02-04T13:13:02.413Z,6.25
2023-02-04T13:14:05.717Z,7.20
2023-02-04T13:15:07.876Z,5.47
2023-02-04T13:16:09.619Z,5.40
2023-02-04T13:17:11.701Z,5.97
2023-02-04T13:18:13.294Z,10.55
2023-02-04T13:19:14.905Z,5.38
2023-02-04T13:20:16.638Z,6.55
2023-02-04T13:21:18.252Z,5.93
2023-02-04T13:22:19.947Z,5.57
2023-02-04T13:23:21.575Z,6.07
2023-02-04T13:24:23.170Z,6.10
2023-02-04T13:25:24.769Z,5.37
2023-02-04T13:26:26.402Z,4.68
2023-02-04T13:27:28.120Z,4.97
2023-02-04T13:28:29.729Z,5.63
2023-02-04T13:29:31.338Z,5.43
2023-02-04T13:30:33.023Z,5.70
2023-02-04T13:31:34.843Z,4.78
2023-02-04T13:32:36.523Z,6.65
2023-02-04T13:33:38.123Z,6.10
2023-02-04T13:34:39.750Z,5.63
2023-02-04T13:35:41.506Z,4.70
2023-02-04T13:36:43.930Z,5.03
2023-02-04T13:37:45.533Z,6.00
2023-02-04T13:38:47.225Z,4.78
2023-02-04T13:39:48.887Z,4.50
2023-02-04T13:40:50.507Z,6.80
2023-02-04T13:41:52.200Z,5.72
2023-02-04T13:42:53.826Z,4.90
2023-02-04T13:43:55.813Z,5.70
2023-02-04T13:44:57.410Z,5.70
2023-02-04T13:45:59.108Z,4.47
2023-02-04T13:47:00.799Z,6.57
2023-02-04T13:48:02.440Z,4.47
2023-02-04T13:49:06.771Z,8.07
2023-02-04T13:50:08.777Z,5.55
2023-02-04T13:51:10.495Z,6.50
2023-02-04T13:52:12.272Z,6.20
2023-02-04T13:53:13.928Z,6.47
2023-02-04T13:54:15.617Z,5.28